Time;durP1;ratioP1;P1;durP2;ratioP2;P2;SDS_P1;SDS_P2;PMS_P1;PMS_P2;Temp;Humidity;BMP_temperature;BMP_pressure;BME280_temperature;BME280_humidity;BME280_pressure;Samples;Min_cycle;Max_cycle;Signal;HPM_P1;HPM_P2
2022/09/25 00:00:26;;;;;;;;;;;;;;;8.29;80.88;100149.38;5091397;28;806;-59
2022/09/25 00:02:52;;;;;;;;;;;;;;;8.31;81.06;100144.28;5091256;28;1939;-59
2022/09/25 00:05:19;;;;;;;;;;;;;;;8.29;81.60;100138.34;5091749;28;852;-59
2022/09/25 00:07:45;;;;;;;;;;;;;;;8.23;81.22;100145.38;5095562;28;853;-59
2022/09/25 00:10:12;;;;;;;;;;;;;;;8.16;81.46;100145.31;5095193;28;873;-59
2022/09/25 00:12:41;;;;;;;;;;;;;;;8.12;81.88;100150.00;5095143;28;840;-59
2022/09/25 00:15:08;;;;;;;;;;;;;;;8.13;81.92;100149.63;5095087;28;846;-59
2022/09/25 00:17:35;;;;;;;;;;;;;;;8.15;81.67;100141.78;5095285;28;857;-59
2022/09/25 00:20:02;;;;;;;;;;;;;;;8.12;81.95;100136.22;5095226;28;857;-59
2022/09/25 00:22:29;;;;;;;;;;;;;;;8.08;81.66;100135.41;5095020;28;888;-59
2022/09/25 00:24:56;;;;;;;;;;;;;;;8.08;80.71;100140.91;5094585;28;1886;-59
2022/09/25 00:27:23;;;;;;;;;;;;;;;8.08;80.77;100132.63;5094840;28;897;-59
2022/09/25 00:29:50;;;;;;;;;;;;;;;8.07;80.96;100134.59;5094784;28;778;-59
2022/09/25 00:32:17;;;;;;;;;;;;;;;8.03;80.36;100133.00;5094777;28;814;-59
2022/09/25 00:34:43;;;;;;;;;;;;;;;7.98;80.92;100129.41;5095069;28;786;-59
2022/09/25 00:37:10;;;;;;;;;;;;;;;7.92;80.74;100136.41;5094654;28;831;-59
2022/09/25 00:39:36;;;;;;;;;;;;;;;7.87;81.17;100128.50;5094639;28;802;-59
2022/09/25 00:42:03;;;;;;;;;;;;;;;7.81;81.01;100121.75;5094560;28;803;-59
2022/09/25 00:44:49;;;;;;;;;;;;;;;7.75;81.79;100123.25;5094384;28;1906;-59
2022/09/25 00:47:19;;;;;;;;;;;;;;;7.65;82.04;100121.16;5094745;28;874;-58
2022/09/25 00:49:46;;;;;;;;;;;;;;;7.60;83.04;100129.75;5094638;28;826;-59
2022/09/25 00:52:13;;;;;;;;;;;;;;;7.52;82.88;100124.16;5094453;28;803;-59
2022/09/25 00:54:43;;;;;;;;;;;;;;;7.45;83.80;100113.06;5094335;28;802;-59
2022/09/25 00:57:12;;;;;;;;;;;;;;;7.37;83.72;100116.88;5094320;28;775;-59
2022/09/25 00:59:42;;;;;;;;;;;;;;;7.31;84.40;100121.13;5094186;28;794;-59
2022/09/25 01:02:13;;;;;;;;;;;;;;;7.22;84.18;100113.16;5094503;28;798;-59
2022/09/25 01:04:41;;;;;;;;;;;;;;;7.13;85.09;100107.94;5092900;28;1953;-59
2022/09/25 01:07:09;;;;;;;;;;;;;;;7.10;84.55;100108.66;5094079;28;819;-59
2022/09/25 01:09:35;;;;;;;;;;;;;;;7.10;84.67;100105.91;5094213;28;869;-59
2022/09/25 01:12:02;;;;;;;;;;;;;;;7.04;85.47;100104.66;5093917;28;861;-60
2022/09/25 01:14:28;;;;;;;;;;;;;;;6.97;85.28;100107.28;5092723;28;881;-59
2022/09/25 01:17:00;;;;;;;;;;;;;;;6.97;85.89;100104.53;5093610;28;881;-59
2022/09/25 01:19:31;;;;;;;;;;;;;;;6.98;86.57;100100.66;5093861;28;830;-60
2022/09/25 01:22:10;;;;;;;;;;;;;;;6.95;86.23;100096.66;5093761;28;857;-59
2022/09/25 01:25:02;;;;;;;;;;;;;;;6.94;86.43;100102.56;5093442;28;1959;-59
2022/09/25 01:27:36;;;;;;;;;;;;;;;6.92;86.04;100102.13;5093887;28;825;-59
2022/09/25 01:30:02;;;;;;;;;;;;;;;6.91;87.13;100104.09;5093647;28;842;-58
2022/09/25 01:32:32;;;;;;;;;;;;;;;6.92;86.25;100102.13;5093647;28;826;-59
2022/09/25 01:35:06;;;;;;;;;;;;;;;6.96;86.87;100108.47;5093543;28;790;-59
2022/09/25 01:37:44;;;;;;;;;;;;;;;6.98;86.65;100105.34;5092271;28;1174;-59
2022/09/25 01:40:17;;;;;;;;;;;;;;;6.99;87.10;100098.69;5092183;28;861;-59
2022/09/25 01:42:52;;;;;;;;;;;;;;;6.99;87.10;100102.22;5093662;28;854;-59
2022/09/25 01:45:23;;;;;;;;;;;;;;;6.97;87.82;100098.25;5092043;28;2167;-59
2022/09/25 01:47:51;;;;;;;;;;;;;;;6.98;88.03;100099.84;5093322;28;834;-59
2022/09/25 01:50:23;;;;;;;;;;;;;;;7.02;87.91;100101.50;5093264;28;888;-58
2022/09/25 01:52:51;;;;;;;;;;;;;;;6.95;87.74;100104.91;5093246;28;850;-59
2022/09/25 01:55:17;;;;;;;;;;;;;;;6.96;88.43;100100.22;5093119;28;782;-59
2022/09/25 01:57:48;;;;;;;;;;;;;;;7.00;88.76;100103.81;5093095;28;838;-59
2022/09/25 02:00:17;;;;;;;;;;;;;;;7.00;88.60;100101.06;5093556;28;822;-59
2022/09/25 02:02:48;;;;;;;;;;;;;;;7.00;88.85;100092.81;5092986;28;802;-58
2022/09/25 02:05:20;;;;;;;;;;;;;;;6.95;88.69;100096.66;5093002;28;1886;-59
2022/09/25 02:07:49;;;;;;;;;;;;;;;6.94;89.11;100099.81;5093191;28;854;-59
2022/09/25 02:10:26;;;;;;;;;;;;;;;6.93;88.97;100103.69;5092926;28;795;-59
2022/09/25 02:12:56;;;;;;;;;;;;;;;6.90;88.54;100104.44;5092933;28;818;-59
2022/09/25 02:15:30;;;;;;;;;;;;;;;6.90;88.71;100109.94;5092734;28;861;-59
2022/09/25 02:20:57;;;;;;;;;;;;;;;6.90;89.54;100109.94;5092688;28;617;-58
2022/09/25 02:23:25;;;;;;;;;;;;;;;6.90;89.19;100116.22;5092578;28;1882;-59
2022/09/25 02:25:59;;;;;;;;;;;;;;;6.90;89.31;100115.44;5092649;28;853;-58
2022/09/25 02:28:26;;;;;;;;;;;;;;;6.90;88.92;100113.47;5091848;28;786;-58
2022/09/25 02:30:55;;;;;;;;;;;;;;;6.91;88.85;100106.03;5092492;28;861;-58
2022/09/25 02:33:23;;;;;;;;;;;;;;;6.91;88.80;100117.00;5092475;28;798;-58
2022/09/25 02:35:52;;;;;;;;;;;;;;;6.86;89.63;100112.63;5092441;28;802;-59
2022/09/25 02:38:20;;;;;;;;;;;;;;;6.83;90.49;100120.81;5092351;28;791;-59
2022/09/25 02:41:14;;;;;;;;;;;;;;;6.78;90.13;100123.88;5090974;28;897;-59
2022/09/25 02:43:41;;;;;;;;;;;;;;;6.77;90.03;100117.59;5090956;28;1910;-59
2022/09/25 02:46:23;;;;;;;;;;;;;;;6.82;90.31;100119.25;5092333;28;803;-59
2022/09/25 02:48:53;;;;;;;;;;;;;;;6.82;90.92;100131.00;5092204;28;842;-59
2022/09/25 02:51:40;;;;;;;;;;;;;;;6.79;90.90;100130.97;5092302;28;786;-59
2022/09/25 02:54:27;;;;;;;;;;;;;;;6.74;91.31;100130.13;5092332;28;841;-59
2022/09/25 02:57:01;;;;;;;;;;;;;;;6.75;91.11;100136.41;5092064;28;861;-59
2022/09/25 02:59:31;;;;;;;;;;;;;;;6.79;91.34;100130.97;5092059;28;846;-59
2022/09/25 03:01:57;;;;;;;;;;;;;;;6.83;90.48;100127.13;5091975;28;896;-59
2022/09/25 03:04:26;;;;;;;;;;;;;;;6.83;90.72;100129.06;5091871;28;1905;-59
2022/09/25 03:06:54;;;;;;;;;;;;;;;6.83;90.00;100132.63;5092076;28;814;-58
2022/09/25 03:09:22;;;;;;;;;;;;;;;6.75;90.06;100137.19;5091819;28;798;-59
2022/09/25 03:11:48;;;;;;;;;;;;;;;6.81;90.71;100134.94;5092063;28;799;-59
2022/09/25 03:14:15;;;;;;;;;;;;;;;6.86;90.70;100125.59;5091856;28;814;-59
2022/09/25 03:16:46;;;;;;;;;;;;;;;6.86;90.74;100126.38;5091792;28;847;-59
2022/09/25 03:19:14;;;;;;;;;;;;;;;6.82;90.13;100131.00;5091751;28;822;-59
2022/09/25 03:21:41;;;;;;;;;;;;;;;6.80;90.66;100127.06;5090465;28;851;-59
2022/09/25 03:24:08;;;;;;;;;;;;;;;6.80;90.45;100122.34;5091554;28;1957;-59
2022/09/25 03:26:33;;;;;;;;;;;;;;;6.86;90.73;100120.88;5091674;28;850;-58
2022/09/25 03:29:01;;;;;;;;;;;;;;;6.88;90.79;100132.28;5090371;28;903;-59
2022/09/25 03:31:28;;;;;;;;;;;;;;;6.86;91.65;100126.38;5090320;28;1313;-59
2022/09/25 03:33:55;;;;;;;;;;;;;;;6.92;91.87;100118.63;5091598;28;857;-59
2022/09/25 03:36:23;;;;;;;;;;;;;;;7.06;92.11;100120.75;5091551;28;837;-58
2022/09/25 03:38:51;;;;;;;;;;;;;;;7.05;91.63;100127.44;5091564;28;798;-59
2022/09/25 03:41:20;;;;;;;;;;;;;;;6.93;92.06;100128.44;5095201;28;865;-59
2022/09/25 03:43:50;;;;;;;;;;;;;;;6.86;92.03;100134.63;5095625;28;1976;-59
2022/09/25 03:46:18;;;;;;;;;;;;;;;6.86;91.44;100118.13;5095661;28;928;-59
2022/09/25 03:48:45;;;;;;;;;;;;;;;6.84;91.03;100128.69;5095934;28;841;-59
2022/09/25 03:51:12;;;;;;;;;;;;;;;6.81;90.61;100131.41;5095789;28;861;-59
2022/09/25 03:53:39;;;;;;;;;;;;;;;6.72;90.91;100137.13;5095854;28;791;-59
2022/09/25 03:56:07;;;;;;;;;;;;;;;6.67;90.97;100131.97;5095813;28;833;-59
2022/09/25 03:58:34;;;;;;;;;;;;;;;6.63;91.43;100134.63;5095592;28;834;-60
2022/09/25 04:01:01;;;;;;;;;;;;;;;6.59;91.61;100131.03;5095629;28;864;-59
2022/09/25 04:03:29;;;;;;;;;;;;;;;6.52;92.21;100133.69;5095368;28;1906;-58
2022/09/25 04:05:56;;;;;;;;;;;;;;;6.51;92.29;100135.63;5095341;28;794;-58
2022/09/25 04:08:25;;;;;;;;;;;;;;;6.51;92.56;100138.38;5095333;28;779;-59
2022/09/25 04:10:55;;;;;;;;;;;;;;;6.53;92.50;100140.78;5095187;28;817;-59
2022/09/25 04:13:28;;;;;;;;;;;;;;;6.51;92.31;100137.59;5095161;28;829;-59
2022/09/25 04:15:58;;;;;;;;;;;;;;;6.49;91.91;100135.22;5095153;28;794;-59
2022/09/25 04:18:27;;;;;;;;;;;;;;;6.45;92.23;100139.84;5095063;28;830;-59
2022/09/25 04:20:53;;;;;;;;;;;;;;;6.45;92.04;100137.09;5095022;28;802;-59
2022/09/25 04:23:20;;;;;;;;;;;;;;;6.41;92.67;100135.47;5093397;28;1932;-59
2022/09/25 04:25:48;;;;;;;;;;;;;;;6.34;92.24;100141.63;5094978;28;889;-59
2022/09/25 04:28:14;;;;;;;;;;;;;;;6.27;92.76;100142.28;5093614;28;857;-59
2022/09/25 04:30:40;;;;;;;;;;;;;;;6.23;92.45;100146.09;5094877;28;806;-59
2022/09/25 04:35:53;;;;;;;;;;;;;;;6.11;92.43;100145.13;5094764;28;597;-59
2022/09/25 04:38:19;;;;;;;;;;;;;;;6.09;93.12;100152.13;5094937;28;862;-59
2022/09/25 04:40:46;;;;;;;;;;;;;;;6.11;93.20;100144.34;5094607;28;791;-59
2022/09/25 04:43:13;;;;;;;;;;;;;;;6.16;93.32;100144.03;5094541;28;1909;-59
2022/09/25 04:45:40;;;;;;;;;;;;;;;6.26;93.46;100154.41;5094596;28;813;-59
2022/09/25 04:48:07;;;;;;;;;;;;;;;6.37;93.53;100143.63;5094433;28;854;-59
2022/09/25 04:50:34;;;;;;;;;;;;;;;6.49;93.75;100148.94;5094480;28;870;-59
2022/09/25 04:53:01;;;;;;;;;;;;;;;6.63;93.76;100148.38;5093667;28;825;-59
2022/09/25 04:55:28;;;;;;;;;;;;;;;6.80;93.32;100144.31;5094434;28;810;-59
2022/09/25 04:57:54;;;;;;;;;;;;;;;6.98;93.29;100146.56;5094315;28;802;-59
2022/09/25 05:00:23;;;;;;;;;;;;;;;7.15;92.54;100146.06;5092987;28;1317;-59
2022/09/25 05:02:49;;;;;;;;;;;;;;;7.33;92.46;100149.03;5094214;28;850;-59
2022/09/25 05:34:50;;;;;;;;;;;;;;;9.76;83.07;100166.19;4955276;29;1092;-61
2022/09/25 05:37:16;;;;;;;;;;;;;;;10.16;81.46;100167.13;4955353;29;811;-61
2022/09/25 05:39:42;;;;;;;;;;;;;;;10.41;80.63;100167.19;4955294;29;857;-61
2022/09/25 05:42:09;;;;;;;;;;;;;;;10.57;79.92;100169.59;4955244;29;815;-61
2022/09/25 05:44:38;;;;;;;;;;;;;;;10.74;79.60;100168.03;4955095;29;1985;-62
2022/09/25 05:47:05;;;;;;;;;;;;;;;10.93;79.04;100175.13;4937921;29;1293;-61
2022/09/25 05:49:31;;;;;;;;;;;;;;;11.06;77.94;100170.00;4955129;29;838;-61
2022/09/25 05:51:58;;;;;;;;;;;;;;;11.33;76.96;100173.09;4955086;29;863;-62
2022/09/25 05:54:25;;;;;;;;;;;;;;;11.68;75.97;100174.19;4953633;29;1162;-62
2022/09/25 05:56:51;;;;;;;;;;;;;;;12.00;74.17;100174.09;4955146;29;874;-62
2022/09/25 05:59:18;;;;;;;;;;;;;;;12.28;73.12;100172.34;4954887;29;823;-62
2022/09/25 06:01:44;;;;;;;;;;;;;;;12.50;71.86;100175.78;4954807;29;855;-61
2022/09/25 06:04:10;;;;;;;;;;;;;;;12.58;71.22;100180.09;4953714;28;1890;-61
2022/09/25 06:06:37;;;;;;;;;;;;;;;12.63;70.66;100176.88;4954855;29;831;-62
2022/09/25 06:09:04;;;;;;;;;;;;;;;13.07;69.46;100169.78;4954684;29;894;-62
2022/09/25 06:11:30;;;;;;;;;;;;;;;13.52;67.00;100166.97;4937422;29;1517;-62
2022/09/25 06:13:57;;;;;;;;;;;;;;;14.03;65.27;100164.38;4954617;29;875;-62
2022/09/25 06:16:24;;;;;;;;;;;;;;;14.58;62.82;100160.44;4937390;29;2293;-62
2022/09/25 06:18:51;;;;;;;;;;;;;;;14.83;61.38;100151.69;4954539;29;835;-62
2022/09/25 06:21:18;;;;;;;;;;;;;;;14.77;61.15;100160.94;4954477;29;890;-62
2022/09/25 06:23:45;;;;;;;;;;;;;;;14.66;62.03;100164.69;4954397;29;1957;-62
2022/09/25 06:26:12;;;;;;;;;;;;;;;14.58;62.25;100166.00;4954452;29;835;-61
2022/09/25 06:28:39;;;;;;;;;;;;;;;14.54;62.73;100173.56;4954407;29;876;-61
2022/09/25 06:31:06;;;;;;;;;;;;;;;14.64;63.07;100167.09;4954168;29;824;-62
2022/09/25 06:33:33;;;;;;;;;;;;;;;14.95;62.38;100160.63;4954280;29;1405;-62
2022/09/25 06:35:59;;;;;;;;;;;;;;;15.51;60.72;100155.22;4954475;29;855;-62
2022/09/25 06:38:26;;;;;;;;;;;;;;;16.08;58.81;100164.44;4954045;29;987;-61
2022/09/25 06:40:53;;;;;;;;;;;;;;;16.58;57.88;100159.72;4954247;29;859;-61
2022/09/25 06:43:20;;;;;;;;;;;;;;;16.81;56.14;100159.59;4954078;29;1981;-62
2022/09/25 06:45:49;;;;;;;;;;;;;;;17.00;55.71;100168.31;4954133;29;918;-62
2022/09/25 06:48:16;;;;;;;;;;;;;;;16.92;55.49;100170.50;4954059;29;851;-62
2022/09/25 06:50:47;;;;;;;;;;;;;;;16.80;55.83;100173.97;4953979;29;865;-59
2022/09/25 06:53:14;;;;;;;;;;;;;;;16.81;55.53;100165.16;4953940;29;935;-59
2022/09/25 06:55:44;;;;;;;;;;;;;;;16.86;55.10;100164.66;4954267;29;819;-59
2022/09/25 06:58:12;;;;;;;;;;;;;;;16.95;55.13;100161.25;4953870;29;855;-59
2022/09/25 07:00:39;;;;;;;;;;;;;;;17.06;54.90;100172.16;4953897;29;871;-59
2022/09/25 07:05:59;;;;;;;;;;;;;;;17.59;53.71;100169.16;4937986;29;1275;-59
2022/09/25 07:08:25;;;;;;;;;;;;;;;18.17;52.28;100164.25;4953963;29;869;-59
2022/09/25 07:10:53;;;;;;;;;;;;;;;18.92;50.42;100168.72;4953792;29;848;-59
2022/09/25 07:13:24;;;;;;;;;;;;;;;19.49;48.75;100158.34;4953755;29;827;-59
2022/09/25 07:15:53;;;;;;;;;;;;;;;19.97;47.54;100161.03;4953462;28;883;-59
2022/09/25 07:18:24;;;;;;;;;;;;;;;20.44;46.19;100168.44;4953623;29;899;-59
2022/09/25 07:20:52;;;;;;;;;;;;;;;20.87;45.40;100169.53;4953648;29;792;-58
2022/09/25 07:23:20;;;;;;;;;;;;;;;21.62;44.54;100168.38;4953389;29;1867;-59
2022/09/25 07:25:48;;;;;;;;;;;;;;;22.27;42.99;100163.38;4953511;29;1160;-58
2022/09/25 07:28:15;;;;;;;;;;;;;;;22.75;42.20;100171.16;4953540;29;847;-57
2022/09/25 07:30:42;;;;;;;;;;;;;;;22.75;41.33;100169.13;4953347;29;930;-57
2022/09/25 07:33:09;;;;;;;;;;;;;;;22.93;41.39;100171.03;4953410;29;1180;-58
2022/09/25 07:35:36;;;;;;;;;;;;;;;23.04;40.96;100164.88;4936311;29;899;-58
2022/09/25 07:38:03;;;;;;;;;;;;;;;23.11;40.88;100169.38;4953568;29;860;-58
2022/09/25 07:40:34;;;;;;;;;;;;;;;23.44;40.48;100158.00;4953730;29;882;-58
2022/09/25 07:43:00;;;;;;;;;;;;;;;23.50;39.74;100166.59;4954230;29;768;-59
2022/09/25 07:45:27;;;;;;;;;;;;;;;23.08;40.50;100161.88;4936714;29;1972;-59
2022/09/25 07:48:00;;;;;;;;;;;;;;;23.11;39.84;100158.91;4953764;29;779;-60
2022/09/25 07:50:27;;;;;;;;;;;;;;;23.26;39.92;100158.94;4953318;29;831;-60
2022/09/25 07:52:53;;;;;;;;;;;;;;;23.09;39.81;100160.66;4953346;29;808;-61
2022/09/25 07:55:20;;;;;;;;;;;;;;;22.75;41.18;100155.03;4953285;29;815;-61
2022/09/25 07:57:48;;;;;;;;;;;;;;;22.25;41.22;100153.84;4953261;29;865;-61
2022/09/25 08:00:15;;;;;;;;;;;;;;;22.22;41.71;100150.72;4953210;29;831;-61
2022/09/25 08:02:42;;;;;;;;;;;;;;;22.41;41.62;100145.81;4953209;29;788;-61
2022/09/25 08:05:09;;;;;;;;;;;;;;;22.03;42.39;100149.22;4953064;29;1959;-61
2022/09/25 08:07:35;;;;;;;;;;;;;;;21.72;43.04;100149.44;4953515;29;859;-62
2022/09/25 08:10:02;;;;;;;;;;;;;;;22.30;42.67;100142.75;4935855;29;1222;-61
2022/09/25 08:12:29;;;;;;;;;;;;;;;22.54;41.32;100142.00;4953129;29;843;-61
2022/09/25 08:14:56;;;;;;;;;;;;;;;22.65;41.05;100138.66;4953089;29;877;-62
2022/09/25 08:17:23;;;;;;;;;;;;;;;23.01;40.55;100134.84;4953123;29;808;-61
2022/09/25 08:19:49;;;;;;;;;;;;;;;23.07;40.16;100130.09;4953086;29;940;-62
2022/09/25 08:22:16;;;;;;;;;;;;;;;23.11;40.59;100135.53;4953074;29;867;-62
2022/09/25 08:24:42;;;;;;;;;;;;;;;22.13;41.49;100127.44;4953024;29;1902;-62
2022/09/25 08:27:09;;;;;;;;;;;;;;;21.06;43.69;100125.41;4954501;28;823;-61
2022/09/25 08:29:36;;;;;;;;;;;;;;;20.44;44.68;100117.13;4956760;29;824;-62
2022/09/25 08:32:02;;;;;;;;;;;;;;;20.36;45.87;100125.06;4956499;29;943;-61
2022/09/25 08:34:30;;;;;;;;;;;;;;;20.63;45.94;100129.22;4956333;29;1211;-61
2022/09/25 08:36:57;;;;;;;;;;;;;;;20.82;45.96;100125.19;4956453;29;918;-62
2022/09/25 08:39:24;;;;;;;;;;;;;;;21.37;44.77;100125.22;4956403;29;871;-61
2022/09/25 08:41:54;;;;;;;;;;;;;;;22.06;42.39;100133.41;4956417;29;803;-61
2022/09/25 08:44:38;;;;;;;;;;;;;;;22.33;42.08;100130.50;4956176;29;1903;-61
2022/09/25 08:49:58;;;;;;;;;;;;;;;21.92;42.35;100121.56;4956495;29;634;-61
2022/09/25 08:52:24;;;;;;;;;;;;;;;21.88;43.05;100111.75;4956170;29;921;-61
2022/09/25 08:54:51;;;;;;;;;;;;;;;22.17;43.06;100111.94;4956062;29;904;-61
2022/09/25 08:57:52;;;;;;;;;;;;;;;22.46;42.42;100104.19;4956173;29;839;-61
2022/09/25 09:00:20;;;;;;;;;;;;;;;22.57;42.14;100107.22;4924555;29;1298;-61
2022/09/25 09:02:49;;;;;;;;;;;;;;;22.66;41.61;100103.56;4956007;29;1013;-61
2022/09/25 09:05:19;;;;;;;;;;;;;;;22.77;41.26;100104.63;4956174;29;1918;-61
2022/09/25 09:07:52;;;;;;;;;;;;;;;22.68;41.87;100103.88;4956256;29;816;-61
2022/09/25 09:10:27;;;;;;;;;;;;;;;22.74;41.94;100099.91;4955839;29;831;-61
2022/09/25 09:13:16;;;;;;;;;;;;;;;23.02;42.19;100094.13;4954516;29;1440;-61
2022/09/25 09:15:56;;;;;;;;;;;;;;;23.26;40.64;100087.66;4947630;29;1153;-61
2022/09/25 09:18:29;;;;;;;;;;;;;;;22.97;40.74;100092.72;4955816;29;894;-61
2022/09/25 09:20:57;;;;;;;;;;;;;;;23.13;41.47;100083.09;4955664;29;835;-61
2022/09/25 09:23:29;;;;;;;;;;;;;;;23.08;40.97;100077.31;4955598;29;1891;-61
2022/09/25 09:26:02;;;;;;;;;;;;;;;23.00;40.63;100077.72;4955839;29;811;-61
2022/09/25 09:28:34;;;;;;;;;;;;;;;22.87;41.61;100077.13;4955375;29;784;-61
2022/09/25 09:31:20;;;;;;;;;;;;;;;22.86;41.36;100066.38;4955495;29;795;-61
2022/09/25 09:33:53;;;;;;;;;;;;;;;23.07;40.71;100056.81;4955199;29;1204;-61
2022/09/25 09:36:20;;;;;;;;;;;;;;;23.46;40.45;100058.81;4955401;29;883;-61
2022/09/25 09:39:07;;;;;;;;;;;;;;;23.48;40.35;100059.09;4955128;28;796;-62
2022/09/25 09:41:44;;;;;;;;;;;;;;;23.54;40.31;100052.28;4955300;29;840;-61
2022/09/25 09:44:21;;;;;;;;;;;;;;;23.83;40.04;100045.09;4955171;29;1969;-61
2022/09/25 09:46:48;;;;;;;;;;;;;;;24.11;39.05;100039.09;4955240;29;828;-60
2022/09/25 09:49:20;;;;;;;;;;;;;;;24.35;39.21;100041.75;4955124;29;838;-60
2022/09/25 09:51:53;;;;;;;;;;;;;;;24.54;39.04;100034.59;4955431;29;823;-59
2022/09/25 09:54:31;;;;;;;;;;;;;;;24.60;37.81;100031.81;4955079;29;862;-59
2022/09/25 09:57:00;;;;;;;;;;;;;;;24.72;37.83;100025.03;4954849;29;895;-59
2022/09/25 09:59:30;;;;;;;;;;;;;;;24.93;37.25;100031.44;4954851;29;891;-59
2022/09/25 10:02:13;;;;;;;;;;;;;;;25.27;36.17;100012.03;4955086;29;843;-59
2022/09/25 10:04:40;;;;;;;;;;;;;;;25.26;36.33;100010.47;4954786;29;1937;-59
2022/09/25 10:07:10;;;;;;;;;;;;;;;25.33;36.27;100006.41;4954793;29;866;-58
2022/09/25 10:09:37;;;;;;;;;;;;;;;25.61;35.21;99996.13;4955049;29;871;-59
2022/09/25 10:12:13;;;;;;;;;;;;;;;25.75;34.41;99997.25;4954904;29;866;-58
2022/09/25 10:14:44;;;;;;;;;;;;;;;25.65;34.31;99998.75;4954713;29;850;-58
2022/09/25 10:17:12;;;;;;;;;;;;;;;25.79;35.05;99988.53;4954689;29;807;-58
2022/09/25 10:19:46;;;;;;;;;;;;;;;26.20;34.34;99988.28;4954824;29;817;-58
2022/09/25 10:22:16;;;;;;;;;;;;;;;26.50;33.66;99980.22;4954568;29;867;-58
2022/09/25 10:24:51;;;;;;;;;;;;;;;26.43;31.38;99972.94;4954633;29;1948;-58
2022/09/25 10:27:21;;;;;;;;;;;;;;;26.42;31.72;99973.47;4954513;29;883;-58
2022/09/25 10:29:59;;;;;;;;;;;;;;;26.22;31.52;99971.56;4954382;29;898;-58
2022/09/25 10:32:26;;;;;;;;;;;;;;;26.02;31.72;99970.44;4954521;29;1383;-59
2022/09/25 10:34:53;;;;;;;;;;;;;;;26.10;31.62;99956.59;4954569;29;799;-58
2022/09/25 10:37:21;;;;;;;;;;;;;;;26.26;32.06;99958.69;4954414;29;792;-58
2022/09/25 10:40:02;;;;;;;;;;;;;;;26.32;32.18;99955.13;4954254;29;933;-58
2022/09/25 10:42:36;;;;;;;;;;;;;;;26.45;32.36;99953.38;4954324;29;851;-59
2022/09/25 10:45:21;;;;;;;;;;;;;;;26.49;31.13;99953.91;4953989;29;1976;-59
2022/09/25 10:50:35;;;;;;;;;;;;;;;26.34;31.74;99949.75;4953778;28;666;-59
2022/09/25 10:53:04;;;;;;;;;;;;;;;26.33;31.13;99943.31;4954056;29;875;-59
2022/09/25 10:55:40;;;;;;;;;;;;;;;26.52;31.89;99952.09;4954149;29;914;-59
2022/09/25 10:58:08;;;;;;;;;;;;;;;26.59;30.51;99943.16;4953897;29;780;-60
2022/09/25 11:00:40;;;;;;;;;;;;;;;26.46;29.99;99943.59;4953943;29;827;-60
2022/09/25 11:03:13;;;;;;;;;;;;;;;26.54;30.45;99937.44;4953850;29;804;-60
2022/09/25 11:05:46;;;;;;;;;;;;;;;26.57;30.10;99937.22;4954153;29;1887;-60
2022/09/25 11:08:15;;;;;;;;;;;;;;;26.41;30.20;99930.16;4953882;29;871;-60
2022/09/25 11:10:51;;;;;;;;;;;;;;;26.60;30.52;99929.75;4953767;29;855;-60
2022/09/25 11:13:27;;;;;;;;;;;;;;;27.02;30.23;99900.44;4953729;29;815;-62
2022/09/25 11:15:58;;;;;;;;;;;;;;;27.05;29.89;99912.81;4953672;29;951;-61
2022/09/25 11:18:40;;;;;;;;;;;;;;;27.17;29.51;99908.69;4953690;29;831;-61
2022/09/25 11:21:17;;;;;;;;;;;;;;;27.22;29.77;99899.44;4953749;29;804;-61
2022/09/25 11:23:50;;;;;;;;;;;;;;;27.23;29.37;99909.50;4953553;29;1948;-61
2022/09/25 11:26:19;;;;;;;;;;;;;;;27.19;29.13;99905.34;4953495;29;800;-61
2022/09/25 11:29:02;;;;;;;;;;;;;;;27.31;28.69;99912.56;4954040;29;768;-61
2022/09/25 11:31:41;;;;;;;;;;;;;;;27.61;28.38;99906.34;4952223;29;1276;-62
2022/09/25 11:34:26;;;;;;;;;;;;;;;27.82;27.36;99904.75;4953445;29;1579;-61
2022/09/25 11:37:16;;;;;;;;;;;;;;;27.75;27.55;99910.19;4953568;29;835;-61
2022/09/25 11:42:35;;;;;;;;;;;;;;;27.88;26.64;99887.72;4953495;29;692;-61
2022/09/25 11:45:09;;;;;;;;;;;;;;;28.23;26.65;99884.25;4953322;29;1975;-61
2022/09/25 11:47:54;;;;;;;;;;;;;;;28.75;26.44;99874.13;4953456;29;820;-60
2022/09/25 11:50:26;;;;;;;;;;;;;;;29.09;25.43;99862.50;4953315;29;888;-60
2022/09/25 11:53:13;;;;;;;;;;;;;;;29.01;24.21;99855.84;4936203;29;1384;-60
2022/09/25 11:55:50;;;;;;;;;;;;;;;28.84;24.13;99861.66;4953129;29;939;-60
2022/09/25 11:58:17;;;;;;;;;;;;;;;28.74;24.49;99866.13;4953280;29;859;-61
2022/09/25 12:01:02;;;;;;;;;;;;;;;28.64;23.56;99874.97;4954164;28;871;-60
2022/09/25 12:03:38;;;;;;;;;;;;;;;28.61;23.68;99876.03;4957065;29;1878;-61
2022/09/25 12:06:04;;;;;;;;;;;;;;;28.74;23.58;99866.13;4957060;29;820;-61
2022/09/25 12:08:30;;;;;;;;;;;;;;;28.96;23.58;99865.97;4956914;29;879;-61
2022/09/25 12:11:12;;;;;;;;;;;;;;;29.46;23.02;99856.19;4957000;29;859;-60
2022/09/25 12:13:48;;;;;;;;;;;;;;;29.78;22.42;99852.00;4956892;29;792;-60
2022/09/25 12:16:33;;;;;;;;;;;;;;;29.59;22.21;99861.22;4956782;29;898;-60
2022/09/25 12:19:12;;;;;;;;;;;;;;;29.35;22.22;99858.41;4956791;29;812;-61
2022/09/25 12:21:44;;;;;;;;;;;;;;;29.34;22.86;99856.84;4956843;29;894;-61
2022/09/25 12:24:22;;;;;;;;;;;;;;;29.54;22.62;99858.47;4956864;29;1887;-61
2022/09/25 12:26:56;;;;;;;;;;;;;;;29.80;22.38;99855.09;4956501;29;951;-61
2022/09/25 12:29:41;;;;;;;;;;;;;;;29.93;21.89;99855.94;4956679;29;816;-61
2022/09/25 12:32:14;;;;;;;;;;;;;;;30.27;22.01;99846.94;4956912;29;1068;-61
2022/09/25 12:34:41;;;;;;;;;;;;;;;30.22;21.01;99862.06;4956326;29;1409;-61
2022/09/25 12:37:21;;;;;;;;;;;;;;;29.71;20.95;99847.69;4956465;29;835;-62
2022/09/25 12:39:51;;;;;;;;;;;;;;;29.65;24.35;99853.41;4957036;29;780;-61
2022/09/25 12:42:35;;;;;;;;;;;;;;;29.85;25.96;99851.38;4956383;29;1025;-62
2022/09/25 12:45:11;;;;;;;;;;;;;;;29.06;27.34;99844.41;4957043;29;1974;-61
2022/09/25 12:48:00;;;;;;;;;;;;;;;28.74;27.78;99846.97;4956243;29;812;-61
2022/09/25 12:50:31;;;;;;;;;;;;;;;28.54;28.10;99841.72;4955803;29;2057;-62
2022/09/25 12:53:19;;;;;;;;;;;;;;;28.74;28.11;99843.38;4956280;29;890;-63
2022/09/25 12:55:49;;;;;;;;;;;;;;;29.08;27.40;99841.81;4956034;29;816;-62
2022/09/25 12:58:23;;;;;;;;;;;;;;;29.25;27.31;99846.56;4956040;29;875;-62
2022/09/25 13:00:59;;;;;;;;;;;;;;;29.52;26.96;99844.75;4956117;29;867;-62
2022/09/25 13:03:42;;;;;;;;;;;;;;;29.50;26.97;99841.66;4955933;29;1949;-63
2022/09/25 13:06:27;;;;;;;;;;;;;;;29.39;27.18;99839.72;4955859;29;890;-62
2022/09/25 13:08:56;;;;;;;;;;;;;;;29.33;27.57;99835.38;4955903;29;812;-62
2022/09/25 13:11:37;;;;;;;;;;;;;;;29.20;27.38;99842.50;4955836;29;843;-62
2022/09/25 13:14:09;;;;;;;;;;;;;;;28.92;27.63;99842.72;4955306;28;874;-62
2022/09/25 13:16:36;;;;;;;;;;;;;;;28.30;28.65;99834.59;4955870;29;890;-62
2022/09/25 13:19:22;;;;;;;;;;;;;;;27.27;29.11;99835.47;4955777;29;910;-62
2022/09/25 13:21:50;;;;;;;;;;;;;;;26.04;31.06;99834.78;4938730;29;815;-62
2022/09/25 13:24:17;;;;;;;;;;;;;;;25.41;32.33;99837.78;4955894;29;1886;-61
2022/09/25 13:26:52;;;;;;;;;;;;;;;26.19;31.66;99826.06;4955722;29;886;-61
2022/09/25 13:29:37;;;;;;;;;;;;;;;27.25;30.55;99826.72;4955568;29;839;-61
2022/09/25 13:32:14;;;;;;;;;;;;;;;28.13;29.01;99820.50;4955669;29;937;-62
2022/09/25 13:34:41;;;;;;;;;;;;;;;28.25;28.70;99810.59;4955262;29;1503;-62
2022/09/25 13:37:09;;;;;;;;;;;;;;;28.33;28.49;99804.34;4955413;29;886;-62
2022/09/25 13:42:23;;;;;;;;;;;;;;;27.94;29.04;99800.44;4955308;29;681;-62
2022/09/25 13:44:56;;;;;;;;;;;;;;;27.52;29.62;99801.59;4955427;29;1982;-62
2022/09/25 13:47:23;;;;;;;;;;;;;;;27.62;29.69;99803.63;4938059;29;1532;-61
2022/09/25 13:49:53;;;;;;;;;;;;;;;27.61;29.54;99810.63;4955361;29;851;-61
2022/09/25 13:52:29;;;;;;;;;;;;;;;27.66;29.60;99797.69;4955105;29;840;-62
2022/09/25 13:55:17;;;;;;;;;;;;;;;27.61;30.07;99789.97;4955039;29;902;-61
2022/09/25 13:57:57;;;;;;;;;;;;;;;27.72;30.09;99791.97;4955028;29;895;-62
2022/09/25 14:00:26;;;;;;;;;;;;;;;27.73;29.56;99788.63;4954740;29;952;-61
2022/09/25 14:03:00;;;;;;;;;;;;;;;27.73;29.88;99785.03;4955031;29;819;-62
2022/09/25 14:05:34;;;;;;;;;;;;;;;27.95;30.37;99795.53;4954839;29;1902;-61
2022/09/25 14:08:06;;;;;;;;;;;;;;;28.17;30.29;99797.50;4955257;29;828;-61
2022/09/25 14:10:33;;;;;;;;;;;;;;;27.90;30.86;99795.03;4954847;29;828;-62